East Warren, Vermont
Current Conditions -  °F | °C
As of 11:15 AM on Thursday 27 Nov 2014 (Local Time) from K6B0 Reporting Station
Overcast Overcast  
Wind Chill: 21°   Ceiling: 4900
Heat Index: 30°   Visibility: 10mi
Dew Point: 22°   Wind: 9mph
Humidity: 72%   Direction: 350°N
Pressure: 30"   Gusts: NA
Location:  44.1108°N, 72.8612°W
Report Text: K6B0 271615Z AUTO 35008KT 10SM OVC049 M01/M06 A3000 RMK AO2 T10131057
Loading
Personal Weather Stations






























Interactive Weather Map New forecast layout! Learn more

10-Day Weather Forecast

Advertisements
Track Severe Weather on mobile